Time;durP1;ratioP1;P1;durP2;ratioP2;P2;SDS_P1;SDS_P2;PMS_P1;PMS_P2;Temp;Humidity;BMP_temperature;BMP_pressure;BME280_temperature;BME280_humidity;BME280_pressure;Samples;Min_cycle;Max_cycle;Signal;HPM_P1;HPM_P2
2021/09/07 00:00:40;;;;;;;14.20;8.35;;;;;;;10.00;91.85;96265.44;5018931;28;20112;-76
2021/09/07 00:03:05;;;;;;;16.85;8.20;;;;;;;10.07;91.73;96260.78;5024047;28;20462;-75
2021/09/07 00:05:31;;;;;;;14.60;8.73;;;;;;;10.04;91.71;96259.44;5027628;28;20108;-76
2021/09/07 00:07:56;;;;;;;15.43;8.82;;;;;;;9.98;92.45;96254.38;5029870;28;20641;-76
2021/09/07 00:10:22;;;;;;;13.90;8.50;;;;;;;9.89;92.85;96257.44;5028445;28;20438;-75
2021/09/07 00:12:48;;;;;;;15.98;8.93;;;;;;;10.01;91.58;96253.88;5029505;28;20079;-76
2021/09/07 00:15:16;;;;;;;15.90;9.10;;;;;;;10.07;90.30;96247.66;5030556;28;20059;-74
2021/09/07 00:17:41;;;;;;;15.57;8.98;;;;;;;10.01;89.93;96253.88;5027842;28;20511;-76
2021/09/07 00:20:08;;;;;;;19.13;8.05;;;;;;;9.88;90.55;96250.59;5030013;28;20053;-75
2021/09/07 00:22:35;;;;;;;16.30;8.75;;;;;;;9.81;90.70;96252.63;5023484;28;20053;-76
2021/09/07 00:25:01;;;;;;;19.42;8.85;;;;;;;9.75;90.93;96240.44;5002820;28;20049;-76
2021/09/07 00:27:26;;;;;;;15.20;8.85;;;;;;;9.65;91.09;96242.97;5022755;28;20495;-75
2021/09/07 00:29:52;;;;;;;19.23;8.43;;;;;;;9.54;91.70;96234.97;5029977;28;20049;-76
2021/09/07 00:32:17;;;;;;;15.90;8.45;;;;;;;9.43;92.03;96238.50;5027755;28;20080;-77
2021/09/07 00:34:43;;;;;;;16.77;8.68;;;;;;;9.36;93.04;96238.66;5025017;28;20038;-76
2021/09/07 00:37:09;;;;;;;16.20;8.70;;;;;;;9.42;91.97;96244.78;5029487;28;20041;-76
2021/09/07 00:39:35;;;;;;;15.82;8.52;;;;;;;9.52;91.77;96242.31;5031782;28;20487;-75
2021/09/07 00:42:00;;;;;;;20.90;8.38;;;;;;;9.57;90.85;96238.13;5027924;28;20106;-75
2021/09/07 00:44:27;;;;;;;14.68;8.80;;;;;;;9.44;90.99;96229.59;5026958;28;20136;-75
2021/09/07 00:46:59;;;;;;;20.50;8.68;;;;;;;9.38;91.54;96230.56;5029114;28;20041;-77
2021/09/07 00:49:26;;;;;;;14.38;8.10;;;;;;;9.13;91.92;96229.16;5029548;28;20045;-76
2021/09/07 00:51:53;;;;;;;16.48;9.18;;;;;;;9.16;92.52;96228.69;5016110;28;20119;-75
2021/09/07 00:54:20;;;;;;;15.20;8.70;;;;;;;9.27;91.79;96226.22;5010213;28;20046;-75
2021/09/07 00:56:47;;;;;;;16.65;8.65;;;;;;;9.33;91.60;96227.88;5027934;28;20060;-75
2021/09/07 00:59:14;;;;;;;13.20;7.80;;;;;;;9.24;91.71;96229.31;5011100;28;20084;-76
2021/09/07 01:01:41;;;;;;;13.95;8.77;;;;;;;9.25;91.64;96225.66;5025829;28;20041;-76
2021/09/07 01:04:06;;;;;;;17.58;8.68;;;;;;;9.11;92.08;96231.25;5028654;28;20550;-76
2021/09/07 01:06:33;;;;;;;15.75;8.68;;;;;;;9.06;91.99;96215.41;5029910;28;20103;-75
2021/09/07 01:08:59;;;;;;;14.57;8.18;;;;;;;9.08;91.74;96223.88;5027957;28;20049;-76
2021/09/07 01:11:24;;;;;;;14.95;8.75;;;;;;;9.15;92.13;96227.13;5018467;28;20917;-76
2021/09/07 01:13:50;;;;;;;17.15;8.45;;;;;;;9.08;91.96;96221.25;5024726;28;20140;-75
2021/09/07 01:16:17;;;;;;;15.80;8.40;;;;;;;9.07;91.77;96230.16;5033341;28;20041;-76
2021/09/07 01:18:42;;;;;;;16.30;8.40;;;;;;;9.08;91.71;96226.50;5029496;28;20503;-76
2021/09/07 01:21:13;;;;;;;16.90;9.15;;;;;;;8.99;91.59;96222.69;5010110;28;20060;-76
2021/09/07 01:23:41;;;;;;;18.73;8.68;;;;;;;8.87;92.26;96219.38;5018891;28;20045;-76
2021/09/07 01:26:08;;;;;;;14.18;7.80;;;;;;;9.04;92.24;96220.13;5027222;28;20266;-76
2021/09/07 01:28:34;;;;;;;14.80;7.97;;;;;;;8.95;91.58;96219.75;5029173;28;20050;-76
2021/09/07 01:31:01;;;;;;;16.30;8.43;;;;;;;8.96;92.45;96213.44;5021917;28;20049;-75
2021/09/07 01:33:27;;;;;;;15.05;8.57;;;;;;;9.03;91.75;96213.28;5021664;28;20749;-76
2021/09/07 01:35:56;;;;;;;16.63;8.85;;;;;;;8.72;92.50;96202.38;5028970;28;20046;-76
2021/09/07 01:38:22;;;;;;;15.20;8.30;;;;;;;8.95;92.17;96216.31;5027070;28;20038;-75
2021/09/07 01:40:48;;;;;;;14.38;7.65;;;;;;;8.91;92.06;96209.97;5011051;28;20100;-76
2021/09/07 01:43:15;;;;;;;15.45;8.30;;;;;;;8.80;92.92;96219.53;5021414;28;20052;-76
2021/09/07 01:45:40;;;;;;;15.02;7.93;;;;;;;8.82;92.10;96205.13;5019670;28;20041;-75
2021/09/07 01:48:05;;;;;;;12.40;7.78;;;;;;;8.91;91.68;96202.88;5021178;28;20057;-76
2021/09/07 01:50:31;;;;;;;16.27;8.50;;;;;;;8.77;91.98;96199.00;5016451;28;20042;-76
2021/09/07 01:52:56;;;;;;;15.52;8.60;;;;;;;8.69;92.71;96197.56;5009079;28;20053;-76
2021/09/07 01:55:22;;;;;;;16.17;8.15;;;;;;;8.63;93.56;96194.09;5017327;28;20793;-75
2021/09/07 01:57:48;;;;;;;16.48;8.75;;;;;;;8.61;92.91;96200.63;5023148;28;20507;-76
2021/09/07 02:00:14;;;;;;;17.88;8.95;;;;;;;8.72;93.01;96197.13;5027325;28;20103;-76
2021/09/07 02:02:40;;;;;;;14.55;8.57;;;;;;;8.72;92.80;96202.38;5017325;28;20041;-76
2021/09/07 02:05:06;;;;;;;15.75;8.77;;;;;;;8.62;93.56;96202.19;5025758;28;20092;-76
2021/09/07 02:07:31;;;;;;;15.77;8.55;;;;;;;8.62;93.57;96196.94;5022675;28;20045;-76
2021/09/07 02:09:57;;;;;;;18.30;8.75;;;;;;;8.75;92.66;96204.50;5023535;28;20052;-76
2021/09/07 02:12:22;;;;;;;17.00;8.18;;;;;;;8.75;92.09;96201.88;5022597;28;20751;-76
2021/09/07 02:14:48;;;;;;;13.90;8.07;;;;;;;8.60;92.75;96214.75;5011859;28;20052;-76
2021/09/07 02:17:13;;;;;;;17.40;8.90;;;;;;;8.63;93.15;96211.66;5029651;28;20041;-77
2021/09/07 02:19:39;;;;;;;14.65;8.32;;;;;;;8.78;92.09;96217.13;5008864;28;20049;-76
2021/09/07 02:22:05;;;;;;;15.20;8.50;;;;;;;8.78;92.37;96211.88;5018080;28;20053;-76
2021/09/07 02:24:30;;;;;;;13.55;7.88;;;;;;;8.63;92.41;96209.03;5010804;28;20034;-77
2021/09/07 02:26:57;;;;;;;16.40;8.18;;;;;;;8.73;92.20;96213.66;5023895;28;20084;-76
2021/09/07 02:29:22;;;;;;;15.60;8.55;;;;;;;8.75;92.35;96212.38;5028936;28;20042;-76
2021/09/07 02:31:48;;;;;;;14.27;8.15;;;;;;;8.74;92.06;96210.78;5020043;28;20076;-76
2021/09/07 02:34:13;;;;;;;15.38;8.00;;;;;;;8.64;92.07;96216.66;5027946;28;20561;-75
2021/09/07 02:36:39;;;;;;;15.02;8.30;;;;;;;8.49;92.60;96213.78;5029819;28;20095;-76
2021/09/07 02:39:04;;;;;;;13.70;7.57;;;;;;;8.40;93.39;96208.13;5003244;28;20073;-77
2021/09/07 02:41:30;;;;;;;17.10;8.38;;;;;;;8.42;92.98;96208.69;5025592;28;20057;-75
2021/09/07 02:43:56;;;;;;;15.23;8.45;;;;;;;8.46;93.92;96209.03;5027501;28;20512;-76
2021/09/07 02:46:21;;;;;;;16.30;8.50;;;;;;;8.49;93.81;96209.34;5028762;28;20038;-76
2021/09/07 02:48:47;;;;;;;17.75;8.60;;;;;;;8.70;93.27;96203.63;5001634;28;20041;-76
2021/09/07 02:51:12;;;;;;;12.95;7.68;;;;;;;8.59;92.99;96208.72;5028455;28;20045;-75
2021/09/07 02:53:38;;;;;;;14.90;7.78;;;;;;;8.59;92.54;96207.91;5004341;28;20046;-76
2021/09/07 02:56:04;;;;;;;14.40;8.30;;;;;;;8.58;92.04;96211.59;5023213;28;20076;-76
2021/09/07 02:58:29;;;;;;;15.30;8.65;;;;;;;8.53;91.89;96198.38;5010222;28;20049;-76
2021/09/07 03:00:55;;;;;;;18.48;8.00;;;;;;;8.48;92.39;96202.53;5026023;28;20125;-75
2021/09/07 03:03:22;;;;;;;15.25;8.65;;;;;;;8.37;92.68;96197.31;5027752;28;20388;-76
2021/09/07 03:05:47;;;;;;;15.70;8.13;;;;;;;8.26;92.57;96198.97;5028797;28;20120;-77
2021/09/07 03:08:13;;;;;;;16.80;8.00;;;;;;;8.29;93.33;96195.91;5030094;28;20204;-76
2021/09/07 03:10:38;;;;;;;15.57;8.27;;;;;;;8.24;93.28;96193.19;5031551;28;20115;-77
2021/09/07 03:13:04;;;;;;;16.42;8.02;;;;;;;8.36;92.62;96198.34;5029811;28;20053;-76
2021/09/07 03:15:29;;;;;;;14.75;8.10;;;;;;;8.25;93.44;96192.94;5027721;28;20041;-76
2021/09/07 03:17:55;;;;;;;14.98;8.70;;;;;;;8.33;92.94;96205.66;5019342;28;20744;-75
2021/09/07 03:20:20;;;;;;;18.10;8.77;;;;;;;8.14;93.38;96202.44;5026765;28;20491;-76
2021/09/07 03:22:46;;;;;;;14.55;8.27;;;;;;;8.09;93.66;96199.75;5020013;28;20492;-76
2021/09/07 03:25:12;;;;;;;15.70;7.85;;;;;;;8.22;93.30;96203.91;5009987;28;20034;-76
2021/09/07 03:27:37;;;;;;;16.08;8.75;;;;;;;8.37;92.68;96200.72;5028086;28;20038;-75
2021/09/07 03:30:03;;;;;;;15.70;8.10;;;;;;;8.23;92.12;96194.19;5008339;28;20041;-76
2021/09/07 03:32:29;;;;;;;14.65;8.13;;;;;;;8.26;92.90;96193.72;5026016;28;20053;-76
2021/09/07 03:34:55;;;;;;;15.85;8.27;;;;;;;8.37;92.63;96189.47;5026916;28;20041;-76
2021/09/07 03:37:20;;;;;;;15.10;8.10;;;;;;;8.47;92.20;96190.44;5024451;28;20418;-76
2021/09/07 03:39:46;;;;;;;17.33;8.18;;;;;;;8.38;92.12;96189.22;5023015;28;20109;-75
2021/09/07 03:42:11;;;;;;;15.65;8.35;;;;;;;8.24;92.61;96187.94;5029488;28;20041;-76
2021/09/07 03:44:37;;;;;;;17.08;8.85;;;;;;;8.26;92.85;96193.72;5031448;28;20096;-76
2021/09/07 03:47:04;;;;;;;14.80;7.75;;;;;;;8.07;92.79;96186.06;5030492;28;20099;-76
2021/09/07 03:49:29;;;;;;;13.68;8.20;;;;;;;8.18;92.22;96194.13;5023591;28;20050;-77
2021/09/07 03:51:55;;;;;;;14.57;8.18;;;;;;;8.23;91.92;96191.59;5021757;28;20048;-76
2021/09/07 03:54:20;;;;;;;14.32;8.20;;;;;;;8.34;91.35;96203.84;5028308;28;20045;-76
2021/09/07 03:56:46;;;;;;;16.38;8.63;;;;;;;8.22;92.02;96190.78;5022377;28;20037;-76
2021/09/07 03:59:11;;;;;;;13.18;7.95;;;;;;;8.09;92.22;96186.66;5031634;28;20051;-76
2021/09/07 04:01:37;;;;;;;14.82;8.63;;;;;;;7.89;93.45;96188.94;5007286;28;20045;-76
2021/09/07 04:04:03;;;;;;;14.70;8.23;;;;;;;7.71;94.25;96198.53;5029964;28;20042;-76
2021/09/07 04:06:28;;;;;;;14.18;8.00;;;;;;;7.87;93.02;96197.00;5028976;28;20049;-76
2021/09/07 04:08:54;;;;;;;15.02;8.13;;;;;;;7.79;93.68;96203.41;5030907;28;20049;-76
2021/09/07 04:11:19;;;;;;;14.60;7.80;;;;;;;7.86;92.87;96192.00;5022794;28;20092;-76
2021/09/07 04:13:45;;;;;;;15.15;8.35;;;;;;;7.93;92.80;96200.50;5037621;28;20042;-75
2021/09/07 04:16:10;;;;;;;14.63;8.20;;;;;;;7.94;92.63;96196.88;5022238;28;20045;-76
2021/09/07 04:18:36;;;;;;;13.45;7.65;;;;;;;7.88;92.86;96192.56;5018085;28;20120;-76
2021/09/07 04:21:01;;;;;;;15.07;7.88;;;;;;;7.88;92.85;96203.06;5021762;28;20466;-76
2021/09/07 04:23:27;;;;;;;13.88;8.40;;;;;;;7.68;92.80;96204.25;5000071;28;20064;-76
2021/09/07 04:25:53;;;;;;;16.73;8.90;;;;;;;7.68;93.00;96209.50;5023376;28;20040;-76
2021/09/07 04:28:18;;;;;;;16.67;8.52;;;;;;;7.55;93.02;96200.09;5028423;28;20115;-76
2021/09/07 04:30:45;;;;;;;14.57;8.50;;;;;;;7.56;93.36;96208.75;5025827;28;20543;-76
2021/09/07 04:33:11;;;;;;;15.25;8.40;;;;;;;7.72;93.09;96199.34;5019763;28;20045;-77
2021/09/07 04:35:37;;;;;;;17.38;8.52;;;;;;;7.74;93.24;96198.09;5031044;28;20542;-77
2021/09/07 04:38:02;;;;;;;15.77;8.20;;;;;;;7.66;93.08;96198.47;5032686;28;20041;-78
2021/09/07 04:40:28;;;;;;;14.68;8.30;;;;;;;7.60;93.29;96191.53;5027737;28;20499;-77
2021/09/07 04:42:54;;;;;;;14.23;8.13;;;;;;;7.60;93.33;96181.03;5012802;28;20117;-78
2021/09/07 04:45:19;;;;;;;14.27;8.02;;;;;;;7.45;94.35;96190.19;5017684;28;20099;-78
2021/09/07 04:47:45;;;;;;;15.15;8.25;;;;;;;7.50;94.14;96201.81;5032396;28;20041;-77
2021/09/07 04:50:10;;;;;;;17.73;8.95;;;;;;;7.63;94.24;96201.56;5030084;28;20048;-77
2021/09/07 04:52:36;;;;;;;19.05;8.88;;;;;;;7.58;94.44;96210.09;5030240;28;20095;-76
2021/09/07 04:55:02;;;;;;;14.73;8.80;;;;;;;7.72;93.51;96208.00;5032607;28;20048;-77
2021/09/07 04:57:27;;;;;;;15.80;8.75;;;;;;;7.76;93.70;96209.13;5028515;28;20042;-76
2021/09/07 04:59:53;;;;;;;17.65;8.90;;;;;;;7.72;93.06;96205.38;5008821;28;20550;-76
2021/09/07 05:02:18;;;;;;;18.45;9.43;;;;;;;7.52;94.92;96210.25;5018663;28;20045;-75
2021/09/07 05:04:43;;;;;;;16.05;8.55;;;;;;;7.57;94.69;96208.53;5028655;28;20038;-76
2021/09/07 05:07:09;;;;;;;15.13;9.13;;;;;;;7.71;95.14;96208.25;5029167;28;20069;-77
2021/09/07 05:09:35;;;;;;;16.45;8.63;;;;;;;7.78;94.53;96212.31;5028194;28;20045;-75
2021/09/07 05:12:00;;;;;;;16.15;8.52;;;;;;;7.64;94.74;96213.59;5013326;28;20495;-76
2021/09/07 05:14:26;;;;;;;22.90;9.02;;;;;;;7.57;95.50;96212.94;5021679;28;20053;-76
2021/09/07 05:16:51;;;;;;;16.60;9.27;;;;;;;7.56;96.15;96211.38;5030346;28;20045;-75
2021/09/07 05:19:17;;;;;;;16.90;9.30;;;;;;;7.72;95.42;96221.09;5026101;28;20045;-77
2021/09/07 05:21:43;;;;;;;17.38;8.75;;;;;;;7.77;94.91;96223.84;5028155;28;20045;-80
2021/09/07 05:24:08;;;;;;;14.35;8.40;;;;;;;7.92;94.45;96230.38;5025995;28;20056;-79
2021/09/07 05:26:34;;;;;;;15.30;8.95;;;;;;;7.80;94.71;96217.31;5020159;28;20059;-76
2021/09/07 05:28:59;;;;;;;18.67;9.07;;;;;;;7.89;95.08;96225.63;5029071;28;20499;-76
2021/09/07 05:31:25;;;;;;;16.35;9.13;;;;;;;8.11;94.79;96223.13;5022650;28;20037;-75
2021/09/07 05:33:50;;;;;;;16.80;9.35;;;;;;;8.14;94.62;96223.44;5028948;28;20045;-76
2021/09/07 05:36:16;;;;;;;16.65;9.77;;;;;;;8.08;94.77;96224.38;5028129;28;20034;-75
2021/09/07 05:38:42;;;;;;;15.68;9.23;;;;;;;8.13;94.41;96221.84;5029306;28;20068;-76
2021/09/07 05:41:07;;;;;;;17.45;9.15;;;;;;;8.25;94.55;96228.88;5025873;28;20057;-76
2021/09/07 05:43:33;;;;;;;16.17;9.75;;;;;;;8.22;94.71;96234.59;5029195;28;20687;-76
2021/09/07 05:45:59;;;;;;;17.08;9.13;;;;;;;8.22;95.87;96237.22;5028182;28;20099;-76
2021/09/07 05:48:24;;;;;;;20.20;10.25;;;;;;;8.37;95.14;96232.19;5028783;28;20056;-76
2021/09/07 05:50:50;;;;;;;16.98;9.50;;;;;;;8.51;95.49;96234.56;5021863;28;20122;-76
2021/09/07 05:53:15;;;;;;;19.42;9.95;;;;;;;8.44;95.68;96232.88;5009747;28;20052;-76
2021/09/07 05:55:41;;;;;;;19.40;9.63;;;;;;;8.44;96.33;96232.88;5026176;28;20042;-76
2021/09/07 05:58:07;;;;;;;17.65;10.13;;;;;;;8.52;96.20;96239.56;5026718;28;20042;-76
2021/09/07 06:00:32;;;;;;;17.17;9.95;;;;;;;8.59;96.12;96239.41;5023997;28;20088;-76
2021/09/07 06:03:00;;;;;;;18.08;8.93;;;;;;;8.73;95.73;96243.28;5027539;28;20045;-76
2021/09/07 06:05:26;;;;;;;19.55;10.30;;;;;;;8.78;96.26;96253.88;5025014;28;20048;-76
2021/09/07 06:07:52;;;;;;;19.00;9.75;;;;;;;8.91;96.94;96242.25;5027829;28;20033;-81
2021/09/07 06:10:17;;;;;;;18.63;10.48;;;;;;;9.00;96.67;96240.03;5004998;28;20081;-75
2021/09/07 06:12:43;;;;;;;18.05;10.60;;;;;;;9.07;97.11;96240.66;5013519;28;20041;-76
2021/09/07 06:15:09;;;;;;;22.50;10.75;;;;;;;9.24;97.02;96250.31;5028949;28;20469;-76
2021/09/07 06:17:35;;;;;;;20.25;11.00;;;;;;;9.43;96.93;96249.00;5027480;28;20084;-77
2021/09/07 06:20:01;;;;;;;20.48;11.02;;;;;;;9.53;97.33;96254.38;5026488;28;20375;-75
2021/09/07 06:22:26;;;;;;;19.15;10.77;;;;;;;9.71;97.01;96252.47;5023571;28;20100;-78
2021/09/07 06:24:52;;;;;;;18.58;10.52;;;;;;;9.88;97.19;96255.84;5029011;28;20048;-83
2021/09/07 06:27:19;;;;;;;20.00;11.23;;;;;;;10.09;97.08;96256.06;5008384;28;20461;-77
2021/09/07 06:29:44;;;;;;;19.85;11.50;;;;;;;10.25;97.59;96248.34;5022696;28;20042;-76
2021/09/07 06:32:13;;;;;;;19.70;10.70;;;;;;;10.57;96.52;96257.09;5021729;28;20134;-75
2021/09/07 06:34:39;;;;;;;23.15;11.70;;;;;;;10.97;94.92;96259.47;5023093;28;20046;-75
2021/09/07 06:37:05;;;;;;;21.77;10.93;;;;;;;11.12;93.83;96254.31;5021860;28;20112;-74
2021/09/07 06:39:31;;;;;;;22.20;11.23;;;;;;;11.23;94.80;96242.78;5003276;28;20049;-75
2021/09/07 06:41:56;;;;;;;21.65;10.73;;;;;;;11.24;93.62;96238.31;5016828;28;20045;-75
2021/09/07 06:44:22;;;;;;;19.65;10.52;;;;;;;11.41;94.16;96248.69;5026741;28;20049;-74
2021/09/07 06:46:47;;;;;;;18.23;10.68;;;;;;;11.55;94.21;96249.81;5024398;28;20421;-74
2021/09/07 06:49:13;;;;;;;18.08;10.70;;;;;;;11.69;92.86;96254.59;5022263;28;20042;-75
2021/09/07 06:51:38;;;;;;;19.33;10.38;;;;;;;11.72;93.02;96256.72;5021417;28;20050;-77
2021/09/07 06:54:04;;;;;;;19.15;10.48;;;;;;;11.77;92.84;96251.47;5022344;28;20049;-77
2021/09/07 06:56:29;;;;;;;16.92;10.15;;;;;;;11.90;93.40;96245.69;5022497;28;20045;-77
2021/09/07 06:58:55;;;;;;;18.95;11.02;;;;;;;12.35;92.83;96240.81;5022560;28;20063;-75
2021/09/07 07:01:20;;;;;;;18.23;10.13;;;;;;;12.38;92.31;96244.78;5021615;28;20503;-75
2021/09/07 07:03:46;;;;;;;18.83;10.98;;;;;;;12.43;91.58;96242.16;5020749;28;20563;-79
2021/09/07 07:06:11;;;;;;;15.57;9.90;;;;;;;12.55;92.26;96245.31;5020294;28;20099;-76
2021/09/07 07:08:37;;;;;;;18.25;10.20;;;;;;;12.66;91.87;96251.41;5022463;28;20048;-78
2021/09/07 07:11:02;;;;;;;19.35;10.43;;;;;;;12.75;92.12;96249.03;5023869;28;20124;-78
2021/09/07 07:13:28;;;;;;;17.30;10.38;;;;;;;12.87;90.97;96244.25;5022633;28;20037;-78
2021/09/07 07:15:53;;;;;;;20.38;9.93;;;;;;;13.04;92.34;96245.81;5028494;28;20750;-77
2021/09/07 07:18:19;;;;;;;20.98;10.05;;;;;;;13.51;88.24;96242.03;5011013;28;20049;-78
2021/09/07 07:20:44;;;;;;;16.77;10.10;;;;;;;13.56;89.82;96247.34;5026667;28;20091;-79
2021/09/07 07:23:10;;;;;;;17.80;10.38;;;;;;;13.72;89.74;96244.59;5021889;28;20122;-77
2021/09/07 07:25:35;;;;;;;15.95;9.52;;;;;;;13.84;90.02;96245.09;5027576;28;20037;-76
2021/09/07 07:28:01;;;;;;;17.50;10.02;;;;;;;14.01;87.64;96255.34;5029580;28;20053;-76
2021/09/07 07:30:26;;;;;;;19.85;10.05;;;;;;;14.08;88.13;96244.44;5028725;28;20410;-77
2021/09/07 07:32:54;;;;;;;18.65;10.48;;;;;;;14.06;88.15;96254.50;5028798;28;20042;-76
2021/09/07 07:35:20;;;;;;;18.42;9.93;;;;;;;14.14;89.16;96251.31;5030022;28;20046;-78
2021/09/07 07:37:45;;;;;;;20.23;10.23;;;;;;;14.18;88.01;96255.00;5028649;28;20176;-76
2021/09/07 07:40:11;;;;;;;18.38;10.52;;;;;;;14.27;88.30;96250.69;5030244;28;20551;-77
2021/09/07 07:42:37;;;;;;;16.35;9.55;;;;;;;14.34;88.79;96251.16;5027606;28;20072;-79
2021/09/07 07:45:03;;;;;;;15.98;9.68;;;;;;;14.47;87.21;96248.97;5025490;28;20423;-77
2021/09/07 07:47:28;;;;;;;16.83;10.48;;;;;;;14.47;86.93;96255.06;5026488;28;20187;-77
2021/09/07 07:49:54;;;;;;;17.25;10.15;;;;;;;14.60;87.26;96248.34;5027914;28;20697;-80
2021/09/07 07:52:19;;;;;;;17.05;10.13;;;;;;;14.91;85.27;96248.09;5027644;28;20061;-84
2021/09/07 07:54:49;;;;;;;23.88;10.88;;;;;;;14.91;85.04;96253.41;5028813;28;20043;-77
2021/09/07 07:57:16;;;;;;;19.98;10.80;;;;;;;14.97;86.65;96252.31;5028682;28;20033;-76
2021/09/07 07:59:41;;;;;;;18.75;10.18;;;;;;;15.07;86.67;96265.47;5027414;28;20056;-79
2021/09/07 08:02:07;;;;;;;20.65;11.05;;;;;;;15.21;86.04;96259.50;5020850;28;20053;-77
2021/09/07 08:04:32;;;;;;;20.73;11.45;;;;;;;15.14;83.95;96257.19;5029246;28;20042;-77
2021/09/07 08:06:57;;;;;;;23.05;11.70;;;;;;;15.06;82.71;96255.94;5031006;28;20052;-77
2021/09/07 08:09:23;;;;;;;21.25;10.88;;;;;;;15.17;84.01;96261.13;5028161;28;20045;-77
2021/09/07 08:11:49;;;;;;;22.25;11.55;;;;;;;15.34;83.37;96250.91;5027323;28;20033;-77
2021/09/07 08:14:15;;;;;;;18.80;10.73;;;;;;;15.57;82.79;96238.72;5026269;28;20072;-77
2021/09/07 08:16:40;;;;;;;22.25;10.57;;;;;;;15.51;84.86;96239.03;5030131;28;20092;-76
2021/09/07 08:19:06;;;;;;;20.90;9.93;;;;;;;15.87;81.51;96241.28;5024670;28;20145;-76
2021/09/07 08:21:31;;;;;;;17.38;10.38;;;;;;;15.73;84.34;96241.97;5029447;28;20046;-77
2021/09/07 08:23:57;;;;;;;21.38;10.77;;;;;;;15.53;83.58;96236.88;5027916;28;20053;-76
2021/09/07 08:26:23;;;;;;;18.52;10.50;;;;;;;15.45;84.48;96240.19;5006215;28;20491;-76
2021/09/07 08:28:48;;;;;;;16.83;10.43;;;;;;;15.62;83.11;96240.50;5029221;28;20132;-77
2021/09/07 08:31:14;;;;;;;18.15;10.80;;;;;;;15.84;81.79;96239.22;5028787;28;20041;-76
2021/09/07 08:33:40;;;;;;;17.52;10.52;;;;;;;15.73;83.01;96236.66;5024605;28;20653;-75
2021/09/07 08:36:05;;;;;;;18.73;9.98;;;;;;;15.63;83.04;96247.41;5024498;28;20060;-77
2021/09/07 08:38:31;;;;;;;21.88;10.35;;;;;;;15.77;82.61;96242.19;5024723;28;20160;-78
2021/09/07 08:40:58;;;;;;;19.00;10.18;;;;;;;15.71;84.29;96244.09;5018534;28;20491;-78
2021/09/07 08:43:24;;;;;;;17.42;10.18;;;;;;;15.69;83.65;96240.97;5029356;28;20072;-78
2021/09/07 08:45:56;;;;;;;17.80;10.43;;;;;;;15.83;83.22;96246.41;5028872;28;20038;-77
2021/09/07 08:48:25;;;;;;;17.35;10.68;;;;;;;15.81;81.33;96239.78;5026434;28;20848;-77
2021/09/07 08:50:51;;;;;;;19.13;10.93;;;;;;;16.26;78.81;96242.88;5029629;28;20088;-77
2021/09/07 08:53:17;;;;;;;21.27;10.65;;;;;;;16.32;79.16;96236.44;5029203;28;20103;-76
2021/09/07 08:55:42;;;;;;;16.85;9.80;;;;;;;16.28;79.83;96235.44;5026846;28;20041;-77
2021/09/07 08:58:09;;;;;;;14.77;9.75;;;;;;;16.32;80.38;96236.44;5027854;28;20077;-77
2021/09/07 09:00:34;;;;;;;17.02;9.00;;;;;;;16.62;79.25;96245.00;5028563;28;20053;-77
2021/09/07 09:03:08;;;;;;;16.42;9.70;;;;;;;16.69;80.26;96240.13;5023135;28;20053;-78
2021/09/07 09:05:34;;;;;;;19.02;9.80;;;;;;;16.65;78.83;96239.16;5025322;28;20046;-77
2021/09/07 09:07:59;;;;;;;17.30;9.27;;;;;;;17.17;76.33;96247.06;5029026;28;20681;-78
2021/09/07 09:10:27;;;;;;;15.50;8.68;;;;;;;17.57;73.17;96251.91;5025647;28;20038;-76
2021/09/07 09:13:09;;;;;;;15.70;9.50;;;;;;;17.20;74.98;96253.69;5022862;28;20080;-77
2021/09/07 09:15:36;;;;;;;16.45;9.18;;;;;;;17.17;76.64;96251.59;5023462;28;20041;-77
2021/09/07 09:18:11;;;;;;;16.23;9.30;;;;;;;17.18;77.17;96255.84;5033548;28;20045;-76
2021/09/07 09:20:39;;;;;;;17.15;9.23;;;;;;;17.19;72.65;96249.44;5028719;28;20037;-76
2021/09/07 09:23:08;;;;;;;19.30;8.52;;;;;;;17.42;73.10;96251.13;5044084;28;20042;-76
2021/09/07 09:25:43;;;;;;;16.08;8.95;;;;;;;17.41;73.12;96254.88;5037516;28;20072;-78
2021/09/07 09:28:19;;;;;;;15.05;8.23;;;;;;;18.09;68.84;96247.19;5027795;28;20045;-77
2021/09/07 09:30:48;;;;;;;13.55;8.40;;;;;;;18.64;66.42;96254.19;5023888;28;20546;-77
2021/09/07 09:33:18;;;;;;;17.95;8.05;;;;;;;18.31;67.92;96248.31;5029338;28;20060;-80
2021/09/07 09:35:51;;;;;;;14.43;8.50;;;;;;;18.22;68.95;96252.78;5028389;28;20060;-78
2021/09/07 09:38:19;;;;;;;13.70;7.80;;;;;;;18.10;69.94;96248.75;5031022;28;20046;-78
2021/09/07 09:40:52;;;;;;;14.30;7.80;;;;;;;18.32;66.03;96249.88;5019642;28;20061;-79
2021/09/07 09:43:30;;;;;;;14.80;8.32;;;;;;;18.45;66.52;96246.38;5030668;28;20522;-77
2021/09/07 09:45:56;;;;;;;12.52;8.00;;;;;;;18.42;66.50;96254.97;5029341;28;20045;-77
2021/09/07 09:48:28;;;;;;;15.25;8.30;;;;;;;18.69;61.51;96253.28;5028703;28;20041;-76
2021/09/07 09:50:56;;;;;;;14.18;8.75;;;;;;;19.28;61.32;96247.06;5026076;28;20045;-76
2021/09/07 09:53:22;;;;;;;11.27;7.68;;;;;;;19.86;61.21;96254.06;5021193;28;20570;-76
2021/09/07 09:55:49;;;;;;;14.45;8.13;;;;;;;20.21;57.98;96239.97;5011046;28;20041;-76
2021/09/07 09:58:18;;;;;;;15.88;8.30;;;;;;;19.95;58.74;96237.25;5028220;28;20056;-77
2021/09/07 10:00:46;;;;;;;13.65;8.25;;;;;;;19.79;57.57;96247.59;5026017;28;20561;-77
2021/09/07 10:03:13;;;;;;;12.40;7.68;;;;;;;19.85;59.56;96239.13;5008940;28;20049;-76
2021/09/07 10:05:40;;;;;;;11.88;7.63;;;;;;;20.31;57.03;96244.22;5022310;28;20069;-77
2021/09/07 10:08:06;;;;;;;13.98;7.78;;;;;;;20.62;57.83;96238.72;5026866;28;20418;-77
2021/09/07 10:10:33;;;;;;;10.65;7.03;;;;;;;21.22;52.64;96231.69;5026462;28;20056;-76
2021/09/07 10:13:02;;;;;;;14.98;7.38;;;;;;;21.56;52.89;96232.66;5027048;28;20045;-76
2021/09/07 10:15:36;;;;;;;12.18;7.47;;;;;;;21.87;49.81;96226.22;5027878;28;20469;-76
2021/09/07 10:18:55;;;;;;;14.18;7.65;;;;;;;21.58;51.33;96225.09;5021137;28;20049;-77
2021/09/07 10:26:15;;;;;;;11.25;7.38;;;;;;;22.71;49.59;96220.06;5011369;28;20037;-75
2021/09/07 10:28:43;;;;;;;13.38;7.57;;;;;;;23.07;48.68;96215.13;5028349;28;20052;-75
2021/09/07 10:31:18;;;;;;;9.75;6.50;;;;;;;23.79;48.61;96222.78;5028159;28;20041;-75
2021/09/07 10:33:47;;;;;;;12.82;7.30;;;;;;;24.49;42.04;96208.31;4993084;28;20050;-76
2021/09/07 10:36:16;;;;;;;9.20;6.75;;;;;;;24.70;44.26;96205.47;5028229;28;20049;-75
2021/09/07 10:38:53;;;;;;;10.65;6.82;;;;;;;24.80;41.51;96198.81;5028249;28;20057;-76
2021/09/07 10:41:34;;;;;;;12.55;7.20;;;;;;;24.00;44.28;96201.97;5013376;28;20042;-77
2021/09/07 10:44:03;;;;;;;9.68;6.80;;;;;;;24.63;44.82;96189.91;5008323;28;20678;-76
2021/09/07 10:46:48;;;;;;;17.08;6.85;;;;;;;25.69;42.67;96194.81;5017805;28;20029;-75
2021/09/07 10:49:17;;;;;;;9.45;6.20;;;;;;;25.94;40.51;96189.19;5024889;28;20112;-76
2021/09/07 10:52:05;;;;;;;14.73;9.20;;;;;;;24.91;39.39;96186.38;5012902;28;20060;-76
2021/09/07 10:54:32;;;;;;;9.55;7.15;;;;;;;24.92;40.63;96187.19;5008885;28;20078;-77
2021/09/07 10:56:59;;;;;;;11.48;6.72;;;;;;;26.25;39.39;96179.47;5009086;28;20045;-76
2021/09/07 10:59:48;;;;;;;12.20;7.38;;;;;;;25.10;38.22;96193.00;5022142;28;20034;-76
2021/09/07 11:02:34;;;;;;;9.32;6.88;;;;;;;25.05;41.06;96189.44;5006791;28;20048;-76
2021/09/07 11:05:04;;;;;;;8.98;6.88;;;;;;;24.87;41.78;96177.47;5027581;28;20047;-76
2021/09/07 11:07:32;;;;;;;10.43;6.85;;;;;;;24.23;41.25;96182.63;5027574;28;20045;-75
2021/09/07 11:09:58;;;;;;;10.88;7.00;;;;;;;24.31;39.97;96176.34;5011621;28;20049;-75
2021/09/07 11:12:50;;;;;;;9.68;6.88;;;;;;;24.02;39.53;96172.84;5028086;28;20048;-76
2021/09/07 11:15:23;;;;;;;10.70;7.43;;;;;;;23.55;39.67;96176.03;5018804;28;20092;-76
2021/09/07 11:17:55;;;;;;;10.70;6.77;;;;;;;23.84;39.58;96187.63;5022703;28;20068;-75
2021/09/07 11:20:24;;;;;;;8.38;6.47;;;;;;;24.44;37.76;96181.66;4998631;28;20041;-75
2021/09/07 11:22:50;;;;;;;9.57;6.88;;;;;;;24.12;38.81;96176.97;5019389;28;20046;-75
2021/09/07 11:25:18;;;;;;;10.20;6.68;;;;;;;24.93;40.07;96181.44;5008228;28;20049;-75
2021/09/07 11:27:58;;;;;;;9.85;6.22;;;;;;;24.68;39.10;96175.41;4990711;28;20050;-76
2021/09/07 11:30:33;;;;;;;11.10;6.57;;;;;;;23.60;38.82;96183.84;5008009;28;20074;-76
2021/09/07 11:33:04;;;;;;;9.30;6.55;;;;;;;23.50;38.84;96184.31;5007727;28;20042;-76